sensor_id;sensor_type;location;lat;lon;timestamp;P1;durP1;ratioP1;P2;durP2;ratioP2
82230;SDS011;71832;45.138;9.816;2024-03-02T00:00:49;11.80;;;5.47;;
82230;SDS011;71832;45.138;9.816;2024-03-02T00:03:18;10.85;;;5.68;;
82230;SDS011;71832;45.138;9.816;2024-03-02T00:05:50;13.38;;;5.85;;
82230;SDS011;71832;45.138;9.816;2024-03-02T00:08:22;15.85;;;6.55;;
82230;SDS011;71832;45.138;9.816;2024-03-02T00:10:52;13.35;;;5.63;;
82230;SDS011;71832;45.138;9.816;2024-03-02T00:13:25;12.38;;;6.20;;
82230;SDS011;71832;45.138;9.816;2024-03-02T00:15:54;13.70;;;6.05;;
82230;SDS011;71832;45.138;9.816;2024-03-02T00:18:25;12.02;;;5.75;;
82230;SDS011;71832;45.138;9.816;2024-03-02T00:20:57;14.55;;;5.90;;
82230;SDS011;71832;45.138;9.816;2024-03-02T00:23:29;8.18;;;5.22;;
82230;SDS011;71832;45.138;9.816;2024-03-02T00:25:58;9.77;;;5.38;;
82230;SDS011;71832;45.138;9.816;2024-03-02T00:28:28;9.57;;;5.82;;
82230;SDS011;71832;45.138;9.816;2024-03-02T00:31:02;12.30;;;5.57;;
82230;SDS011;71832;45.138;9.816;2024-03-02T00:33:37;10.13;;;6.03;;
82230;SDS011;71832;45.138;9.816;2024-03-02T00:36:06;12.68;;;5.75;;
82230;SDS011;71832;45.138;9.816;2024-03-02T00:38:48;9.85;;;5.43;;
82230;SDS011;71832;45.138;9.816;2024-03-02T00:44:06;9.38;;;5.65;;
82230;SDS011;71832;45.138;9.816;2024-03-02T00:46:35;11.75;;;6.40;;
82230;SDS011;71832;45.138;9.816;2024-03-02T00:49:05;13.43;;;5.72;;
82230;SDS011;71832;45.138;9.816;2024-03-02T00:51:49;10.77;;;5.63;;
82230;SDS011;71832;45.138;9.816;2024-03-02T00:54:19;11.90;;;5.63;;
82230;SDS011;71832;45.138;9.816;2024-03-02T00:56:50;14.13;;;5.53;;
82230;SDS011;71832;45.138;9.816;2024-03-02T00:59:21;11.10;;;5.22;;
82230;SDS011;71832;45.138;9.816;2024-03-02T01:01:50;9.85;;;5.68;;
82230;SDS011;71832;45.138;9.816;2024-03-02T01:04:19;9.77;;;5.22;;
82230;SDS011;71832;45.138;9.816;2024-03-02T01:06:47;11.73;;;5.22;;
82230;SDS011;71832;45.138;9.816;2024-03-02T01:09:16;8.75;;;5.22;;
82230;SDS011;71832;45.138;9.816;2024-03-02T01:11:45;12.00;;;5.13;;
82230;SDS011;71832;45.138;9.816;2024-03-02T01:14:13;7.63;;;4.93;;
82230;SDS011;71832;45.138;9.816;2024-03-02T01:16:41;10.48;;;5.90;;
82230;SDS011;71832;45.138;9.816;2024-03-02T01:19:09;9.40;;;5.57;;
82230;SDS011;71832;45.138;9.816;2024-03-02T01:21:38;13.10;;;6.10;;
82230;SDS011;71832;45.138;9.816;2024-03-02T01:24:06;12.68;;;5.82;;
82230;SDS011;71832;45.138;9.816;2024-03-02T01:26:34;12.98;;;5.97;;
82230;SDS011;71832;45.138;9.816;2024-03-02T01:29:02;9.35;;;5.40;;
82230;SDS011;71832;45.138;9.816;2024-03-02T01:31:31;11.85;;;5.40;;
82230;SDS011;71832;45.138;9.816;2024-03-02T01:34:00;12.20;;;5.25;;
82230;SDS011;71832;45.138;9.816;2024-03-02T01:36:28;11.32;;;5.75;;
82230;SDS011;71832;45.138;9.816;2024-03-02T01:38:57;7.90;;;5.22;;
82230;SDS011;71832;45.138;9.816;2024-03-02T01:41:25;9.50;;;4.68;;
82230;SDS011;71832;45.138;9.816;2024-03-02T01:43:53;10.05;;;5.10;;
82230;SDS011;71832;45.138;9.816;2024-03-02T01:46:20;11.38;;;5.18;;
82230;SDS011;71832;45.138;9.816;2024-03-02T01:48:48;10.75;;;5.28;;
82230;SDS011;71832;45.138;9.816;2024-03-02T01:51:15;9.93;;;5.53;;
82230;SDS011;71832;45.138;9.816;2024-03-02T01:53:44;13.35;;;5.30;;
82230;SDS011;71832;45.138;9.816;2024-03-02T01:56:12;10.70;;;5.50;;
82230;SDS011;71832;45.138;9.816;2024-03-02T01:58:41;7.85;;;4.63;;
82230;SDS011;71832;45.138;9.816;2024-03-02T02:01:10;8.32;;;4.07;;
82230;SDS011;71832;45.138;9.816;2024-03-02T02:03:39;10.15;;;4.70;;
82230;SDS011;71832;45.138;9.816;2024-03-02T02:06:07;10.18;;;4.72;;
82230;SDS011;71832;45.138;9.816;2024-03-02T02:08:36;11.98;;;5.30;;
82230;SDS011;71832;45.138;9.816;2024-03-02T02:11:05;8.27;;;4.93;;
82230;SDS011;71832;45.138;9.816;2024-03-02T02:13:34;13.02;;;5.53;;
82230;SDS011;71832;45.138;9.816;2024-03-02T02:16:06;8.25;;;5.15;;
82230;SDS011;71832;45.138;9.816;2024-03-02T02:18:35;10.85;;;5.03;;
82230;SDS011;71832;45.138;9.816;2024-03-02T02:21:03;8.82;;;4.05;;
82230;SDS011;71832;45.138;9.816;2024-03-02T02:23:31;10.73;;;4.20;;
82230;SDS011;71832;45.138;9.816;2024-03-02T02:25:58;9.10;;;4.28;;
82230;SDS011;71832;45.138;9.816;2024-03-02T02:28:28;10.07;;;4.22;;
82230;SDS011;71832;45.138;9.816;2024-03-02T02:30:57;6.25;;;3.88;;
82230;SDS011;71832;45.138;9.816;2024-03-02T02:33:25;12.18;;;4.30;;
82230;SDS011;71832;45.138;9.816;2024-03-02T02:35:53;12.38;;;4.85;;
82230;SDS011;71832;45.138;9.816;2024-03-02T02:38:22;7.65;;;4.10;;
82230;SDS011;71832;45.138;9.816;2024-03-02T02:40:51;11.85;;;4.72;;
82230;SDS011;71832;45.138;9.816;2024-03-02T02:43:19;12.85;;;4.30;;
82230;SDS011;71832;45.138;9.816;2024-03-02T02:45:48;10.75;;;4.80;;
82230;SDS011;71832;45.138;9.816;2024-03-02T02:48:16;10.98;;;4.80;;
82230;SDS011;71832;45.138;9.816;2024-03-02T02:50:45;9.68;;;4.13;;
82230;SDS011;71832;45.138;9.816;2024-03-02T02:53:13;10.35;;;4.68;;
82230;SDS011;71832;45.138;9.816;2024-03-02T02:55:42;10.95;;;4.80;;
82230;SDS011;71832;45.138;9.816;2024-03-02T02:58:10;12.65;;;4.70;;
82230;SDS011;71832;45.138;9.816;2024-03-02T03:00:38;10.50;;;4.47;;
82230;SDS011;71832;45.138;9.816;2024-03-02T03:03:07;13.63;;;4.38;;
82230;SDS011;71832;45.138;9.816;2024-03-02T03:05:36;13.57;;;5.45;;
82230;SDS011;71832;45.138;9.816;2024-03-02T03:08:05;10.48;;;4.72;;
82230;SDS011;71832;45.138;9.816;2024-03-02T03:10:33;12.65;;;4.45;;
82230;SDS011;71832;45.138;9.816;2024-03-02T03:13:02;10.45;;;4.43;;
82230;SDS011;71832;45.138;9.816;2024-03-02T03:15:35;11.48;;;4.22;;
82230;SDS011;71832;45.138;9.816;2024-03-02T03:18:04;13.20;;;4.30;;
82230;SDS011;71832;45.138;9.816;2024-03-02T03:20:33;8.43;;;3.88;;
82230;SDS011;71832;45.138;9.816;2024-03-02T03:23:02;10.82;;;4.28;;
82230;SDS011;71832;45.138;9.816;2024-03-02T03:25:31;10.80;;;3.97;;
82230;SDS011;71832;45.138;9.816;2024-03-02T03:27:59;9.27;;;3.95;;
82230;SDS011;71832;45.138;9.816;2024-03-02T03:30:27;10.38;;;4.35;;
82230;SDS011;71832;45.138;9.816;2024-03-02T03:32:55;7.50;;;3.67;;
82230;SDS011;71832;45.138;9.816;2024-03-02T03:35:24;9.57;;;4.00;;
82230;SDS011;71832;45.138;9.816;2024-03-02T03:37:51;9.18;;;3.55;;
82230;SDS011;71832;45.138;9.816;2024-03-02T03:40:20;13.05;;;3.78;;
82230;SDS011;71832;45.138;9.816;2024-03-02T03:42:49;14.05;;;3.67;;
82230;SDS011;71832;45.138;9.816;2024-03-02T03:45:18;9.75;;;3.45;;
82230;SDS011;71832;45.138;9.816;2024-03-02T03:47:47;9.23;;;3.72;;
82230;SDS011;71832;45.138;9.816;2024-03-02T03:50:15;7.80;;;3.40;;
82230;SDS011;71832;45.138;9.816;2024-03-02T03:52:44;9.55;;;3.75;;
82230;SDS011;71832;45.138;9.816;2024-03-02T03:55:11;9.98;;;3.20;;
82230;SDS011;71832;45.138;9.816;2024-03-02T03:57:40;13.13;;;3.28;;
82230;SDS011;71832;45.138;9.816;2024-03-02T04:00:09;8.02;;;3.15;;
82230;SDS011;71832;45.138;9.816;2024-03-02T04:02:38;8.88;;;2.83;;
82230;SDS011;71832;45.138;9.816;2024-03-02T04:05:06;7.95;;;2.78;;
82230;SDS011;71832;45.138;9.816;2024-03-02T04:07:36;9.90;;;2.92;;
82230;SDS011;71832;45.138;9.816;2024-03-02T04:10:07;6.00;;;2.70;;
82230;SDS011;71832;45.138;9.816;2024-03-02T04:12:36;5.78;;;2.58;;
82230;SDS011;71832;45.138;9.816;2024-03-02T04:15:05;7.22;;;2.75;;
82230;SDS011;71832;45.138;9.816;2024-03-02T04:17:34;6.30;;;2.63;;
82230;SDS011;71832;45.138;9.816;2024-03-02T04:20:02;6.07;;;2.70;;
82230;SDS011;71832;45.138;9.816;2024-03-02T04:22:32;6.63;;;3.17;;
82230;SDS011;71832;45.138;9.816;2024-03-02T04:25:01;6.05;;;3.15;;
82230;SDS011;71832;45.138;9.816;2024-03-02T04:27:30;8.07;;;2.85;;
82230;SDS011;71832;45.138;9.816;2024-03-02T04:29:58;8.43;;;2.78;;
82230;SDS011;71832;45.138;9.816;2024-03-02T04:32:27;8.10;;;2.78;;
82230;SDS011;71832;45.138;9.816;2024-03-02T04:34:55;7.95;;;3.08;;
82230;SDS011;71832;45.138;9.816;2024-03-02T04:37:23;8.43;;;3.28;;
82230;SDS011;71832;45.138;9.816;2024-03-02T04:39:52;7.28;;;2.88;;
82230;SDS011;71832;45.138;9.816;2024-03-02T04:42:21;8.73;;;3.05;;
82230;SDS011;71832;45.138;9.816;2024-03-02T04:44:50;6.85;;;2.55;;
82230;SDS011;71832;45.138;9.816;2024-03-02T04:47:18;6.55;;;2.38;;
82230;SDS011;71832;45.138;9.816;2024-03-02T04:49:47;7.68;;;2.80;;
82230;SDS011;71832;45.138;9.816;2024-03-02T04:52:15;7.78;;;2.75;;
82230;SDS011;71832;45.138;9.816;2024-03-02T04:54:43;6.68;;;2.58;;
82230;SDS011;71832;45.138;9.816;2024-03-02T04:57:30;12.73;;;3.40;;
82230;SDS011;71832;45.138;9.816;2024-03-02T04:59:58;10.02;;;2.50;;
82230;SDS011;71832;45.138;9.816;2024-03-02T05:02:26;7.78;;;2.83;;
82230;SDS011;71832;45.138;9.816;2024-03-02T05:04:53;10.88;;;2.97;;
82230;SDS011;71832;45.138;9.816;2024-03-02T05:07:22;5.00;;;2.42;;
82230;SDS011;71832;45.138;9.816;2024-03-02T05:09:51;8.27;;;2.80;;
82230;SDS011;71832;45.138;9.816;2024-03-02T05:12:20;7.40;;;2.53;;
82230;SDS011;71832;45.138;9.816;2024-03-02T05:15:07;11.23;;;3.20;;
82230;SDS011;71832;45.138;9.816;2024-03-02T05:17:36;8.77;;;2.67;;
82230;SDS011;71832;45.138;9.816;2024-03-02T05:20:05;6.00;;;2.90;;
82230;SDS011;71832;45.138;9.816;2024-03-02T05:22:34;5.15;;;2.50;;
82230;SDS011;71832;45.138;9.816;2024-03-02T05:25:02;7.00;;;3.03;;
82230;SDS011;71832;45.138;9.816;2024-03-02T05:27:31;7.20;;;2.65;;
82230;SDS011;71832;45.138;9.816;2024-03-02T05:29:59;9.32;;;3.20;;
82230;SDS011;71832;45.138;9.816;2024-03-02T05:32:27;8.30;;;3.33;;
82230;SDS011;71832;45.138;9.816;2024-03-02T05:34:55;8.40;;;3.15;;
82230;SDS011;71832;45.138;9.816;2024-03-02T05:37:23;4.65;;;2.55;;
82230;SDS011;71832;45.138;9.816;2024-03-02T05:39:52;9.57;;;3.10;;
82230;SDS011;71832;45.138;9.816;2024-03-02T05:42:20;9.35;;;3.10;;
82230;SDS011;71832;45.138;9.816;2024-03-02T05:44:48;5.68;;;2.92;;
82230;SDS011;71832;45.138;9.816;2024-03-02T05:47:17;8.45;;;2.55;;
82230;SDS011;71832;45.138;9.816;2024-03-02T05:49:45;6.97;;;3.58;;
82230;SDS011;71832;45.138;9.816;2024-03-02T05:52:13;7.50;;;3.03;;
82230;SDS011;71832;45.138;9.816;2024-03-02T05:54:42;11.27;;;3.47;;
82230;SDS011;71832;45.138;9.816;2024-03-02T05:57:10;6.88;;;3.00;;
82230;SDS011;71832;45.138;9.816;2024-03-02T05:59:52;9.00;;;3.72;;
82230;SDS011;71832;45.138;9.816;2024-03-02T06:02:20;8.77;;;3.38;;
82230;SDS011;71832;45.138;9.816;2024-03-02T06:04:49;7.80;;;2.80;;
82230;SDS011;71832;45.138;9.816;2024-03-02T06:07:17;7.30;;;3.20;;
82230;SDS011;71832;45.138;9.816;2024-03-02T06:09:46;11.75;;;4.30;;
82230;SDS011;71832;45.138;9.816;2024-03-02T06:12:16;13.10;;;4.00;;
82230;SDS011;71832;45.138;9.816;2024-03-02T06:14:45;8.82;;;3.55;;
82230;SDS011;71832;45.138;9.816;2024-03-02T06:17:14;9.40;;;3.53;;
82230;SDS011;71832;45.138;9.816;2024-03-02T06:19:43;11.45;;;4.43;;
82230;SDS011;71832;45.138;9.816;2024-03-02T06:22:10;7.75;;;3.60;;
82230;SDS011;71832;45.138;9.816;2024-03-02T06:24:38;8.65;;;3.58;;
82230;SDS011;71832;45.138;9.816;2024-03-02T06:27:05;9.55;;;3.72;;
82230;SDS011;71832;45.138;9.816;2024-03-02T06:29:34;7.28;;;3.17;;
82230;SDS011;71832;45.138;9.816;2024-03-02T06:32:02;10.50;;;3.72;;
82230;SDS011;71832;45.138;9.816;2024-03-02T06:34:30;10.00;;;3.90;;
82230;SDS011;71832;45.138;9.816;2024-03-02T06:36:57;8.20;;;3.65;;
82230;SDS011;71832;45.138;9.816;2024-03-02T06:39:24;7.95;;;4.28;;
82230;SDS011;71832;45.138;9.816;2024-03-02T06:41:53;7.55;;;3.58;;
82230;SDS011;71832;45.138;9.816;2024-03-02T06:44:21;8.13;;;4.15;;
82230;SDS011;71832;45.138;9.816;2024-03-02T06:46:49;11.82;;;4.63;;
82230;SDS011;71832;45.138;9.816;2024-03-02T06:49:18;12.70;;;4.55;;
82230;SDS011;71832;45.138;9.816;2024-03-02T06:51:46;9.77;;;3.95;;
82230;SDS011;71832;45.138;9.816;2024-03-02T06:54:13;10.20;;;4.40;;
82230;SDS011;71832;45.138;9.816;2024-03-02T06:56:42;10.02;;;4.30;;
82230;SDS011;71832;45.138;9.816;2024-03-02T06:59:10;14.52;;;4.85;;
82230;SDS011;71832;45.138;9.816;2024-03-02T07:01:38;11.80;;;5.75;;
82230;SDS011;71832;45.138;9.816;2024-03-02T07:04:06;9.68;;;4.30;;
82230;SDS011;71832;45.138;9.816;2024-03-02T07:06:33;11.57;;;4.25;;
82230;SDS011;71832;45.138;9.816;2024-03-02T07:09:01;8.77;;;4.53;;
82230;SDS011;71832;45.138;9.816;2024-03-02T07:11:29;8.00;;;4.10;;
82230;SDS011;71832;45.138;9.816;2024-03-02T07:13:57;10.18;;;4.20;;
82230;SDS011;71832;45.138;9.816;2024-03-02T07:16:24;12.73;;;5.10;;
82230;SDS011;71832;45.138;9.816;2024-03-02T07:18:58;12.35;;;5.03;;
82230;SDS011;71832;45.138;9.816;2024-03-02T07:21:27;9.55;;;4.47;;
82230;SDS011;71832;45.138;9.816;2024-03-02T07:23:55;12.98;;;4.75;;
82230;SDS011;71832;45.138;9.816;2024-03-02T07:26:23;10.32;;;4.68;;
82230;SDS011;71832;45.138;9.816;2024-03-02T07:28:51;5.88;;;3.90;;
82230;SDS011;71832;45.138;9.816;2024-03-02T07:31:20;10.20;;;4.47;;
82230;SDS011;71832;45.138;9.816;2024-03-02T07:33:47;10.63;;;5.32;;
82230;SDS011;71832;45.138;9.816;2024-03-02T07:36:15;11.02;;;4.55;;
82230;SDS011;71832;45.138;9.816;2024-03-02T07:38:45;8.57;;;4.38;;
82230;SDS011;71832;45.138;9.816;2024-03-02T07:41:15;9.90;;;5.10;;
82230;SDS011;71832;45.138;9.816;2024-03-02T07:43:44;12.82;;;4.78;;
82230;SDS011;71832;45.138;9.816;2024-03-02T07:46:11;11.18;;;4.15;;
82230;SDS011;71832;45.138;9.816;2024-03-02T07:48:40;10.13;;;4.32;;
82230;SDS011;71832;45.138;9.816;2024-03-02T07:51:08;9.95;;;4.50;;
82230;SDS011;71832;45.138;9.816;2024-03-02T07:53:36;10.20;;;4.05;;
82230;SDS011;71832;45.138;9.816;2024-03-02T07:56:04;8.88;;;3.95;;
82230;SDS011;71832;45.138;9.816;2024-03-02T07:58:32;12.80;;;4.70;;
82230;SDS011;71832;45.138;9.816;2024-03-02T08:01:01;14.38;;;5.13;;
82230;SDS011;71832;45.138;9.816;2024-03-02T08:03:30;12.00;;;4.05;;
82230;SDS011;71832;45.138;9.816;2024-03-02T08:05:59;11.32;;;3.95;;
82230;SDS011;71832;45.138;9.816;2024-03-02T08:08:27;11.60;;;4.30;;
82230;SDS011;71832;45.138;9.816;2024-03-02T08:10:54;8.05;;;3.90;;
82230;SDS011;71832;45.138;9.816;2024-03-02T08:13:22;13.85;;;3.55;;
82230;SDS011;71832;45.138;9.816;2024-03-02T08:15:49;9.60;;;3.67;;
82230;SDS011;71832;45.138;9.816;2024-03-02T08:18:17;9.70;;;3.70;;
82230;SDS011;71832;45.138;9.816;2024-03-02T08:20:44;10.00;;;3.92;;
82230;SDS011;71832;45.138;9.816;2024-03-02T08:23:12;7.90;;;3.97;;
82230;SDS011;71832;45.138;9.816;2024-03-02T08:25:41;10.00;;;3.97;;
82230;SDS011;71832;45.138;9.816;2024-03-02T08:28:08;7.72;;;3.88;;
82230;SDS011;71832;45.138;9.816;2024-03-02T08:30:36;12.45;;;4.57;;
82230;SDS011;71832;45.138;9.816;2024-03-02T08:33:07;10.35;;;3.85;;
82230;SDS011;71832;45.138;9.816;2024-03-02T08:35:35;9.38;;;4.32;;
82230;SDS011;71832;45.138;9.816;2024-03-02T08:38:02;8.00;;;3.88;;
82230;SDS011;71832;45.138;9.816;2024-03-02T08:40:30;7.80;;;3.50;;
82230;SDS011;71832;45.138;9.816;2024-03-02T08:42:58;7.90;;;4.05;;
82230;SDS011;71832;45.138;9.816;2024-03-02T08:45:25;11.00;;;3.72;;
82230;SDS011;71832;45.138;9.816;2024-03-02T08:47:53;8.00;;;3.97;;
82230;SDS011;71832;45.138;9.816;2024-03-02T08:50:21;6.95;;;4.07;;
82230;SDS011;71832;45.138;9.816;2024-03-02T08:52:48;6.90;;;3.92;;
82230;SDS011;71832;45.138;9.816;2024-03-02T08:55:16;9.05;;;3.55;;
82230;SDS011;71832;45.138;9.816;2024-03-02T08:57:47;7.72;;;3.97;;
82230;SDS011;71832;45.138;9.816;2024-03-02T09:00:16;10.15;;;4.88;;
82230;SDS011;71832;45.138;9.816;2024-03-02T09:02:44;11.90;;;4.20;;
82230;SDS011;71832;45.138;9.816;2024-03-02T09:05:12;8.05;;;3.70;;
82230;SDS011;71832;45.138;9.816;2024-03-02T09:07:40;11.23;;;4.18;;
82230;SDS011;71832;45.138;9.816;2024-03-02T09:10:08;8.00;;;4.18;;
82230;SDS011;71832;45.138;9.816;2024-03-02T09:12:36;9.07;;;3.97;;
82230;SDS011;71832;45.138;9.816;2024-03-02T09:15:05;6.88;;;3.83;;
82230;SDS011;71832;45.138;9.816;2024-03-02T09:17:33;7.38;;;4.43;;
82230;SDS011;71832;45.138;9.816;2024-03-02T09:20:00;10.27;;;4.40;;
82230;SDS011;71832;45.138;9.816;2024-03-02T09:22:29;9.32;;;3.90;;
82230;SDS011;71832;45.138;9.816;2024-03-02T09:24:57;7.22;;;3.90;;
82230;SDS011;71832;45.138;9.816;2024-03-02T09:27:25;8.20;;;5.15;;
82230;SDS011;71832;45.138;9.816;2024-03-02T09:29:52;8.02;;;4.63;;
82230;SDS011;71832;45.138;9.816;2024-03-02T09:32:19;8.75;;;4.53;;
82230;SDS011;71832;45.138;9.816;2024-03-02T09:34:47;9.65;;;4.63;;
82230;SDS011;71832;45.138;9.816;2024-03-02T09:37:14;10.45;;;3.90;;
82230;SDS011;71832;45.138;9.816;2024-03-02T09:39:43;9.25;;;3.78;;
82230;SDS011;71832;45.138;9.816;2024-03-02T09:42:11;13.75;;;5.00;;
82230;SDS011;71832;45.138;9.816;2024-03-02T09:44:40;10.60;;;4.88;;
82230;SDS011;71832;45.138;9.816;2024-03-02T09:47:09;10.85;;;4.97;;
82230;SDS011;71832;45.138;9.816;2024-03-02T09:49:37;9.05;;;4.57;;
82230;SDS011;71832;45.138;9.816;2024-03-02T09:52:06;10.10;;;5.03;;
82230;SDS011;71832;45.138;9.816;2024-03-02T09:54:34;9.80;;;5.15;;
82230;SDS011;71832;45.138;9.816;2024-03-02T09:57:02;9.30;;;4.93;;
82230;SDS011;71832;45.138;9.816;2024-03-02T09:59:30;10.98;;;5.15;;
82230;SDS011;71832;45.138;9.816;2024-03-02T10:01:59;8.25;;;4.95;;
82230;SDS011;71832;45.138;9.816;2024-03-02T10:04:28;8.88;;;4.72;;
82230;SDS011;71832;45.138;9.816;2024-03-02T10:07:18;8.00;;;5.05;;
82230;SDS011;71832;45.138;9.816;2024-03-02T10:09:45;12.35;;;5.25;;
82230;SDS011;71832;45.138;9.816;2024-03-02T10:12:16;7.75;;;4.63;;
82230;SDS011;71832;45.138;9.816;2024-03-02T10:14:44;8.82;;;4.95;;
82230;SDS011;71832;45.138;9.816;2024-03-02T10:17:14;7.15;;;4.50;;
82230;SDS011;71832;45.138;9.816;2024-03-02T10:19:43;10.82;;;5.75;;
82230;SDS011;71832;45.138;9.816;2024-03-02T10:22:11;9.70;;;4.75;;
82230;SDS011;71832;45.138;9.816;2024-03-02T10:24:40;8.20;;;4.80;;
82230;SDS011;71832;45.138;9.816;2024-03-02T10:27:15;8.30;;;4.32;;
82230;SDS011;71832;45.138;9.816;2024-03-02T10:29:45;9.07;;;4.88;;
82230;SDS011;71832;45.138;9.816;2024-03-02T10:32:14;10.15;;;4.90;;
82230;SDS011;71832;45.138;9.816;2024-03-02T10:34:44;7.05;;;4.47;;
82230;SDS011;71832;45.138;9.816;2024-03-02T10:37:13;6.18;;;4.53;;
82230;SDS011;71832;45.138;9.816;2024-03-02T10:39:43;6.55;;;4.43;;
82230;SDS011;71832;45.138;9.816;2024-03-02T10:42:13;6.47;;;4.20;;
82230;SDS011;71832;45.138;9.816;2024-03-02T10:44:42;6.10;;;4.65;;
82230;SDS011;71832;45.138;9.816;2024-03-02T10:47:12;6.13;;;4.65;;
82230;SDS011;71832;45.138;9.816;2024-03-02T10:49:41;7.28;;;4.75;;
82230;SDS011;71832;45.138;9.816;2024-03-02T10:52:10;8.32;;;4.82;;
82230;SDS011;71832;45.138;9.816;2024-03-02T10:54:39;7.32;;;4.70;;
82230;SDS011;71832;45.138;9.816;2024-03-02T10:57:07;8.10;;;4.85;;
82230;SDS011;71832;45.138;9.816;2024-03-02T10:59:41;9.02;;;4.03;;
82230;SDS011;71832;45.138;9.816;2024-03-02T11:02:18;6.03;;;4.32;;
82230;SDS011;71832;45.138;9.816;2024-03-02T11:04:50;7.05;;;4.28;;
82230;SDS011;71832;45.138;9.816;2024-03-02T11:07:22;6.72;;;4.25;;
82230;SDS011;71832;45.138;9.816;2024-03-02T11:09:54;6.25;;;4.40;;
82230;SDS011;71832;45.138;9.816;2024-03-02T11:12:29;6.18;;;4.15;;
82230;SDS011;71832;45.138;9.816;2024-03-02T11:15:00;5.90;;;4.03;;
82230;SDS011;71832;45.138;9.816;2024-03-02T11:17:31;7.68;;;4.32;;
82230;SDS011;71832;45.138;9.816;2024-03-02T11:20:00;7.13;;;4.38;;
82230;SDS011;71832;45.138;9.816;2024-03-02T11:22:28;6.72;;;4.32;;
82230;SDS011;71832;45.138;9.816;2024-03-02T11:24:57;7.78;;;4.45;;
82230;SDS011;71832;45.138;9.816;2024-03-02T11:27:58;8.68;;;4.57;;
82230;SDS011;71832;45.138;9.816;2024-03-02T11:33:00;8.32;;;4.47;;
82230;SDS011;71832;45.138;9.816;2024-03-02T11:35:41;9.05;;;5.93;;
82230;SDS011;71832;45.138;9.816;2024-03-02T11:38:11;8.48;;;4.90;;
82230;SDS011;71832;45.138;9.816;2024-03-02T11:40:39;12.68;;;7.65;;
82230;SDS011;71832;45.138;9.816;2024-03-02T11:43:07;11.45;;;6.47;;
82230;SDS011;71832;45.138;9.816;2024-03-02T11:45:35;10.40;;;6.60;;
82230;SDS011;71832;45.138;9.816;2024-03-02T11:48:13;12.13;;;8.52;;
82230;SDS011;71832;45.138;9.816;2024-03-02T11:50:42;8.15;;;5.63;;
82230;SDS011;71832;45.138;9.816;2024-03-02T11:53:14;6.78;;;5.35;;
82230;SDS011;71832;45.138;9.816;2024-03-02T11:55:42;8.02;;;4.90;;
82230;SDS011;71832;45.138;9.816;2024-03-02T11:58:12;8.38;;;5.40;;
82230;SDS011;71832;45.138;9.816;2024-03-02T12:00:43;7.90;;;5.18;;
82230;SDS011;71832;45.138;9.816;2024-03-02T12:03:12;8.73;;;5.40;;
82230;SDS011;71832;45.138;9.816;2024-03-02T12:05:41;7.07;;;5.07;;
82230;SDS011;71832;45.138;9.816;2024-03-02T12:08:11;6.95;;;5.18;;
82230;SDS011;71832;45.138;9.816;2024-03-02T12:10:39;8.07;;;5.55;;
82230;SDS011;71832;45.138;9.816;2024-03-02T12:13:07;8.27;;;4.88;;
82230;SDS011;71832;45.138;9.816;2024-03-02T12:15:37;7.38;;;5.25;;
82230;SDS011;71832;45.138;9.816;2024-03-02T12:18:06;7.68;;;4.90;;
82230;SDS011;71832;45.138;9.816;2024-03-02T12:20:34;8.77;;;5.50;;
82230;SDS011;71832;45.138;9.816;2024-03-02T12:23:02;8.27;;;5.32;;
82230;SDS011;71832;45.138;9.816;2024-03-02T12:25:32;9.85;;;5.50;;
82230;SDS011;71832;45.138;9.816;2024-03-02T12:28:01;8.07;;;5.38;;
82230;SDS011;71832;45.138;9.816;2024-03-02T12:30:29;7.68;;;5.15;;
82230;SDS011;71832;45.138;9.816;2024-03-02T12:33:01;8.60;;;5.25;;
82230;SDS011;71832;45.138;9.816;2024-03-02T12:35:29;8.13;;;5.30;;
82230;SDS011;71832;45.138;9.816;2024-03-02T12:37:57;7.60;;;5.38;;
82230;SDS011;71832;45.138;9.816;2024-03-02T12:40:24;10.10;;;5.30;;
82230;SDS011;71832;45.138;9.816;2024-03-02T12:42:53;9.25;;;5.35;;
82230;SDS011;71832;45.138;9.816;2024-03-02T12:45:20;9.50;;;5.38;;
82230;SDS011;71832;45.138;9.816;2024-03-02T12:47:49;10.45;;;5.80;;
82230;SDS011;71832;45.138;9.816;2024-03-02T12:50:17;8.30;;;5.60;;
82230;SDS011;71832;45.138;9.816;2024-03-02T12:52:56;7.97;;;5.03;;
82230;SDS011;71832;45.138;9.816;2024-03-02T12:55:24;8.10;;;5.50;;
82230;SDS011;71832;45.138;9.816;2024-03-02T12:57:54;9.05;;;5.22;;
82230;SDS011;71832;45.138;9.816;2024-03-02T13:00:24;7.68;;;5.03;;
82230;SDS011;71832;45.138;9.816;2024-03-02T13:02:53;8.05;;;5.35;;
82230;SDS011;71832;45.138;9.816;2024-03-02T13:05:29;6.93;;;5.07;;
82230;SDS011;71832;45.138;9.816;2024-03-02T13:07:58;7.10;;;4.75;;
82230;SDS011;71832;45.138;9.816;2024-03-02T13:10:29;7.60;;;4.85;;
82230;SDS011;71832;45.138;9.816;2024-03-02T13:12:57;8.82;;;5.10;;
82230;SDS011;71832;45.138;9.816;2024-03-02T13:15:26;9.45;;;5.70;;
82230;SDS011;71832;45.138;9.816;2024-03-02T13:17:58;9.55;;;5.43;;
82230;SDS011;71832;45.138;9.816;2024-03-02T13:20:35;9.77;;;5.68;;
82230;SDS011;71832;45.138;9.816;2024-03-02T13:23:04;6.38;;;4.07;;
82230;SDS011;71832;45.138;9.816;2024-03-02T13:25:33;8.02;;;5.45;;
82230;SDS011;71832;45.138;9.816;2024-03-02T13:28:00;8.52;;;5.20;;
82230;SDS011;71832;45.138;9.816;2024-03-02T13:30:29;8.98;;;5.40;;
82230;SDS011;71832;45.138;9.816;2024-03-02T13:32:57;7.30;;;4.65;;
82230;SDS011;71832;45.138;9.816;2024-03-02T13:35:26;10.48;;;5.93;;
82230;SDS011;71832;45.138;9.816;2024-03-02T13:37:55;9.55;;;5.10;;
82230;SDS011;71832;45.138;9.816;2024-03-02T13:40:22;7.43;;;5.32;;
82230;SDS011;71832;45.138;9.816;2024-03-02T13:42:51;9.00;;;5.20;;
82230;SDS011;71832;45.138;9.816;2024-03-02T13:45:19;8.25;;;5.47;;
82230;SDS011;71832;45.138;9.816;2024-03-02T13:47:47;11.18;;;5.70;;
82230;SDS011;71832;45.138;9.816;2024-03-02T13:50:15;9.23;;;5.45;;
82230;SDS011;71832;45.138;9.816;2024-03-02T13:52:44;8.90;;;5.28;;
82230;SDS011;71832;45.138;9.816;2024-03-02T13:55:12;11.20;;;5.90;;
82230;SDS011;71832;45.138;9.816;2024-03-02T13:57:41;9.20;;;5.85;;
82230;SDS011;71832;45.138;9.816;2024-03-02T14:00:10;8.38;;;5.80;;
82230;SDS011;71832;45.138;9.816;2024-03-02T14:02:38;9.50;;;5.85;;
82230;SDS011;71832;45.138;9.816;2024-03-02T14:05:06;7.70;;;5.57;;
82230;SDS011;71832;45.138;9.816;2024-03-02T14:07:41;7.85;;;5.53;;
82230;SDS011;71832;45.138;9.816;2024-03-02T14:10:09;8.60;;;5.55;;
82230;SDS011;71832;45.138;9.816;2024-03-02T14:12:37;11.45;;;5.60;;
82230;SDS011;71832;45.138;9.816;2024-03-02T14:15:06;8.55;;;5.57;;
82230;SDS011;71832;45.138;9.816;2024-03-02T14:17:34;9.25;;;5.68;;
82230;SDS011;71832;45.138;9.816;2024-03-02T14:20:01;7.85;;;5.45;;
82230;SDS011;71832;45.138;9.816;2024-03-02T14:22:30;7.63;;;5.65;;
82230;SDS011;71832;45.138;9.816;2024-03-02T14:24:59;9.10;;;5.75;;
82230;SDS011;71832;45.138;9.816;2024-03-02T14:27:27;7.43;;;5.38;;
82230;SDS011;71832;45.138;9.816;2024-03-02T14:29:56;8.35;;;5.68;;
82230;SDS011;71832;45.138;9.816;2024-03-02T14:32:24;8.52;;;5.80;;
82230;SDS011;71832;45.138;9.816;2024-03-02T14:34:53;9.02;;;5.35;;
82230;SDS011;71832;45.138;9.816;2024-03-02T14:37:22;8.15;;;5.50;;
82230;SDS011;71832;45.138;9.816;2024-03-02T14:39:50;12.45;;;5.90;;
82230;SDS011;71832;45.138;9.816;2024-03-02T14:42:19;8.90;;;5.72;;
82230;SDS011;71832;45.138;9.816;2024-03-02T14:44:47;8.57;;;5.90;;
82230;SDS011;71832;45.138;9.816;2024-03-02T14:47:15;8.77;;;5.97;;
82230;SDS011;71832;45.138;9.816;2024-03-02T14:49:44;8.48;;;6.10;;
82230;SDS011;71832;45.138;9.816;2024-03-02T14:52:12;9.05;;;6.15;;
82230;SDS011;71832;45.138;9.816;2024-03-02T14:54:41;8.40;;;5.63;;
82230;SDS011;71832;45.138;9.816;2024-03-02T14:57:09;8.25;;;5.93;;
82230;SDS011;71832;45.138;9.816;2024-03-02T14:59:37;9.35;;;6.03;;